Time;durP1;ratioP1;P1;durP2;ratioP2;P2;SDS_P1;SDS_P2;PMS_P1;PMS_P2;Temp;Humidity;BMP_temperature;BMP_pressure;BME280_temperature;BME280_humidity;BME280_pressure;Samples;Min_cycle;Max_cycle;Signal;HPM_P1;HPM_P2
2023/03/21 00:02:12;;;;;;;59.43;34.33;;;;;;;4.05;79.48;100331.82;1456623;89;22172;-78
2023/03/21 00:04:39;;;;;;;64.87;35.80;;;;;;;4.00;81.41;100334.78;1460121;90;22722;-78
2023/03/21 00:07:05;;;;;;;58.60;35.97;;;;;;;3.98;80.07;100326.19;1448824;89;21626;-78
2023/03/21 00:09:31;;;;;;;54.97;31.53;;;;;;;3.98;80.64;100327.49;1458364;89;21659;-79
2023/03/21 00:12:00;;;;;;;59.17;34.13;;;;;;;3.98;80.83;100320.95;1449671;89;22610;-79
2023/03/21 00:14:29;;;;;;;61.97;36.97;;;;;;;3.99;80.34;100323.09;1448057;89;21695;-78
2023/03/21 00:16:54;;;;;;;61.63;36.83;;;;;;;3.99;80.29;100323.09;1455897;89;21618;-78
2023/03/21 00:19:23;;;;;;;65.50;37.50;;;;;;;3.98;79.46;100320.95;1447483;90;21648;-79
2023/03/21 00:21:51;;;;;;;69.43;36.43;;;;;;;3.98;79.82;100322.73;1455320;89;21699;-78
2023/03/21 00:24:17;;;;;;;69.57;40.47;;;;;;;3.96;79.57;100329.38;1451040;89;21663;-77
2023/03/21 00:26:44;;;;;;;75.47;42.13;;;;;;;3.94;79.70;100320.81;1454996;89;21715;-78
2023/03/21 00:29:10;;;;;;;67.13;41.17;;;;;;;3.90;79.23;100316.72;1450376;89;22610;-78
2023/03/21 00:31:37;;;;;;;72.43;43.63;;;;;;;3.89;79.32;100321.60;1458676;89;21618;-78
2023/03/21 00:34:03;;;;;;;62.43;38.13;;;;;;;3.88;78.86;100317.77;1456671;89;21709;-78
2023/03/21 00:36:30;;;;;;;66.00;37.00;;;;;;;3.91;78.65;100318.86;1439182;90;22491;-77
2023/03/21 00:38:56;;;;;;;63.47;38.50;;;;;;;3.96;78.37;100306.28;1452373;89;22070;-77
2023/03/21 00:41:23;;;;;;;70.57;40.63;;;;;;;4.02;78.23;100306.68;1453510;89;21845;-78
2023/03/21 00:43:50;;;;;;;75.43;42.07;;;;;;;4.02;79.01;100309.30;1446773;90;22455;-77
2023/03/21 00:46:17;;;;;;;80.47;43.67;;;;;;;4.04;78.59;100300.88;1448548;89;21664;-78
2023/03/21 00:48:43;;;;;;;82.83;45.70;;;;;;;4.06;78.86;100301.61;1458323;89;22542;-76
2023/03/21 00:51:24;;;;;;;80.47;44.67;;;;;;;4.02;79.45;100304.06;1451261;89;22572;-77
2023/03/21 00:53:48;;;;;;;83.80;47.77;;;;;;;3.99;79.80;100317.38;1451964;89;21618;-77
2023/03/21 00:56:14;;;;;;;88.13;45.33;;;;;;;3.96;79.51;100307.12;1459137;89;22477;-77
2023/03/21 00:58:40;;;;;;;87.17;48.10;;;;;;;3.94;80.09;100298.55;1449673;89;21420;-77
2023/03/21 01:01:08;;;;;;;82.63;46.50;;;;;;;3.97;79.93;100298.34;1451822;89;21609;-78
2023/03/21 01:03:41;;;;;;;91.23;48.87;;;;;;;4.00;79.62;100289.40;1453149;89;21538;-78
2023/03/21 01:06:05;;;;;;;91.20;51.07;;;;;;;4.04;79.14;100286.47;1444958;90;22610;-78
2023/03/21 01:08:42;;;;;;;108.90;54.67;;;;;;;4.07;79.29;100283.63;1454048;90;21735;-78
2023/03/21 01:11:16;;;;;;;98.10;53.93;;;;;;;4.11;79.45;100282.09;1451533;89;21612;-77
2023/03/21 01:13:42;;;;;;;103.50;59.07;;;;;;;4.10;79.46;100284.36;1454736;89;21781;-78
2023/03/21 01:16:09;;;;;;;107.13;57.67;;;;;;;4.12;79.00;100283.79;1451510;90;22404;-78
2023/03/21 01:18:38;;;;;;;102.17;56.73;;;;;;;4.12;78.90;100283.79;1452441;89;21716;-78
2023/03/21 01:21:10;;;;;;;109.97;57.13;;;;;;;4.12;78.71;100275.93;1460702;89;22617;-77
2023/03/21 01:23:37;;;;;;;121.23;64.00;;;;;;;4.11;78.82;100278.17;1450367;90;21915;-77
2023/03/21 01:26:04;;;;;;;111.10;61.03;;;;;;;4.06;79.69;100274.11;1453249;89;22554;-77
2023/03/21 01:28:33;;;;;;;101.37;57.27;;;;;;;4.02;79.50;100270.02;1454296;89;22685;-78
2023/03/21 01:31:02;;;;;;;109.23;57.37;;;;;;;4.03;79.12;100265.16;1448389;89;21827;-78
2023/03/21 01:33:29;;;;;;;108.17;60.20;;;;;;;4.04;79.68;100260.75;1450336;90;21543;-78
2023/03/21 01:35:56;;;;;;;120.73;61.07;;;;;;;4.06;79.92;100258.39;1454812;89;22640;-78
2023/03/21 01:38:22;;;;;;;114.97;57.80;;;;;;;4.11;79.74;100259.35;1457834;90;22402;-78
2023/03/21 01:40:50;;;;;;;114.20;61.47;;;;;;;4.12;79.91;100251.05;1445877;89;21691;-77
2023/03/21 01:43:27;;;;;;;111.07;59.30;;;;;;;4.12;80.41;100249.27;1461335;89;22425;-79
2023/03/21 01:46:26;;;;;;;120.10;60.80;;;;;;;4.12;79.93;100248.43;1456918;89;21595;-78
2023/03/21 01:49:03;;;;;;;107.17;58.10;;;;;;;4.13;79.58;100244.85;1458010;89;21840;-77
2023/03/21 01:51:34;;;;;;;117.17;62.53;;;;;;;4.14;80.48;100245.20;1464582;90;21870;-78
2023/03/21 01:54:01;;;;;;;133.97;65.78;;;;;;;4.12;80.47;100239.27;1456661;89;21702;-78
2023/03/21 01:56:35;;;;;;;105.63;61.90;;;;;;;4.07;80.34;100237.80;1453642;89;21412;-78
2023/03/21 01:59:13;;;;;;;109.10;58.03;;;;;;;4.11;80.15;100228.41;1446942;89;21730;-77
2023/03/21 02:01:41;;;;;;;111.13;54.67;;;;;;;4.12;80.04;100231.41;1448942;90;21692;-78
2023/03/21 02:04:08;;;;;;;115.53;59.57;;;;;;;4.18;79.83;100237.50;1449174;89;21690;-78
2023/03/21 02:06:45;;;;;;;118.93;57.27;;;;;;;4.18;81.01;100234.89;1448403;89;21685;-79
2023/03/21 02:09:17;;;;;;;116.43;58.23;;;;;;;4.17;81.69;100238.44;1454238;90;21698;-77
2023/03/21 02:11:46;;;;;;;107.73;58.67;;;;;;;4.14;82.12;100242.59;1448226;90;21658;-78
2023/03/21 02:14:18;;;;;;;113.33;59.93;;;;;;;4.12;81.62;100240.57;1449156;89;22973;-78
2023/03/21 02:17:16;;;;;;;116.57;61.33;;;;;;;4.09;81.69;100243.41;1455034;90;21760;-79
2023/03/21 02:20:07;;;;;;;125.53;68.40;;;;;;;4.06;81.77;100238.75;1454312;89;21683;-78
2023/03/21 02:22:54;;;;;;;124.82;65.12;;;;;;;4.01;82.03;100238.23;1456987;89;21834;-78
2023/03/21 02:25:32;;;;;;;108.33;59.50;;;;;;;3.98;83.56;100243.70;1458540;89;21427;-79
2023/03/21 02:28:28;;;;;;;113.03;58.10;;;;;;;3.98;83.61;100250.25;1447397;89;21812;-78
2023/03/21 02:31:12;;;;;;;114.37;56.77;;;;;;;3.98;83.17;100241.56;1450988;89;22611;-78
2023/03/21 02:34:13;;;;;;;96.33;54.93;;;;;;;3.98;83.17;100241.08;1456520;90;21765;-79
2023/03/21 02:37:04;;;;;;;;;;;;;;;3.99;83.29;100246.67;1452382;89;21766;-78
2023/03/21 02:39:54;;;;;;;96.78;52.15;;;;;;;3.97;83.57;100248.58;1455089;90;20423;-79
2023/03/21 02:42:38;;;;;;;94.47;49.77;;;;;;;3.96;82.77;100246.06;1459452;89;21588;-78
2023/03/21 02:45:28;;;;;;;84.67;47.30;;;;;;;3.90;82.11;100253.87;1452146;89;21537;-78
2023/03/21 02:48:03;;;;;;;80.00;47.17;;;;;;;3.78;82.31;100257.37;1454088;89;21737;-78
2023/03/21 02:50:46;;;;;;;93.87;52.23;;;;;;;3.64;82.27;100256.20;1451916;89;21680;-78
2023/03/21 02:53:17;;;;;;;95.23;52.87;;;;;;;3.59;83.48;100259.95;1457844;89;22719;-79
2023/03/21 02:55:44;;;;;;;90.12;53.55;;;;;;;3.60;82.53;100257.72;1458877;89;21791;-78
2023/03/21 02:58:15;;;;;;;100.03;52.97;;;;;;;3.65;83.02;100252.62;1449585;90;22167;-78
2023/03/21 03:00:43;;;;;;;89.72;51.33;;;;;;;3.73;82.72;100252.92;1456646;90;21559;-78
2023/03/21 03:03:11;;;;;;;89.33;53.13;;;;;;;3.83;82.37;100252.66;1458312;89;21317;-78
2023/03/21 03:05:42;;;;;;;97.00;53.07;;;;;;;3.92;83.51;100252.00;1454727;89;21756;-78
2023/03/21 03:08:11;;;;;;;;;;;;;;;3.98;83.80;100253.34;1449214;89;22478;-78
2023/03/21 03:10:55;;;;;;;98.90;55.07;;;;;;;4.02;83.47;100250.37;1456895;89;20283;-78
2023/03/21 03:14:04;;;;;;;95.90;50.13;;;;;;;4.07;82.58;100249.58;1456461;90;22578;-80
2023/03/21 03:16:56;;;;;;;90.73;53.23;;;;;;;4.02;84.78;100254.30;1457174;89;21669;-80
2023/03/21 03:19:28;;;;;;;91.87;51.73;;;;;;;4.04;84.98;100255.04;1420681;89;21680;-80
2023/03/21 03:22:03;;;;;;;89.37;51.57;;;;;;;4.03;85.25;100261.23;1450703;90;21724;-80
2023/03/21 03:24:46;;;;;;;84.67;49.90;;;;;;;4.00;87.47;100262.77;1454546;89;21665;-80
2023/03/21 03:27:18;;;;;;;87.17;52.50;;;;;;;4.07;86.51;100259.22;1452601;90;21703;-79
2023/03/21 03:29:47;;;;;;;93.03;52.53;;;;;;;4.16;85.62;100257.72;1451227;89;22125;-80
2023/03/21 03:32:24;;;;;;;78.83;47.53;;;;;;;4.21;85.84;100259.06;1461759;89;22533;-79
2023/03/21 03:34:56;;;;;;;83.83;51.07;;;;;;;4.25;84.95;100257.05;1443505;90;22927;-80
2023/03/21 03:37:27;;;;;;;95.20;52.83;;;;;;;4.32;84.23;100261.40;1440728;90;21700;-79
2023/03/21 03:40:02;;;;;;;94.45;51.28;;;;;;;4.35;84.15;100259.86;1443498;90;22882;-80
2023/03/21 03:42:33;;;;;;;84.57;50.87;;;;;;;4.36;84.91;100262.35;1458638;89;21449;-81
2023/03/21 03:45:00;;;;;;;91.45;54.60;;;;;;;4.37;83.77;100266.63;1448837;90;21795;-79
2023/03/21 03:47:43;;;;;;;86.90;52.40;;;;;;;4.39;83.09;100269.98;1455094;89;22385;-79
2023/03/21 03:50:42;;;;;;;96.47;53.63;;;;;;;4.41;83.28;100266.79;1459412;90;21840;-79
2023/03/21 03:53:23;;;;;;;88.03;52.57;;;;;;;4.39;84.23;100258.20;1463574;89;21757;-80
2023/03/21 03:55:50;;;;;;;76.40;48.70;;;;;;;4.39;84.27;100258.20;1445889;90;21753;-81
2023/03/21 03:58:19;;;;;;;86.03;50.37;;;;;;;4.40;84.59;100258.58;1451406;89;21519;-82
2023/03/21 04:00:46;;;;;;;80.10;45.03;;;;;;;4.43;84.38;100249.63;1449033;90;21713;-81
2023/03/21 04:03:13;;;;;;;81.63;47.70;;;;;;;4.45;83.82;100260.36;1460875;89;21726;-81
2023/03/21 04:05:40;;;;;;;83.37;49.43;;;;;;;4.48;83.47;100262.76;1455470;89;21692;-81
2023/03/21 04:08:09;;;;;;;84.77;49.33;;;;;;;4.51;83.39;100265.63;1454226;89;21861;-81
2023/03/21 04:10:35;;;;;;;86.03;52.80;;;;;;;4.59;83.18;100267.70;1452908;89;21775;-82
2023/03/21 04:13:02;;;;;;;88.93;51.30;;;;;;;4.62;83.12;100266.16;1446467;90;22093;-80
2023/03/21 04:15:28;;;;;;;83.07;52.43;;;;;;;4.62;83.12;100266.16;1445303;90;21721;-79
2023/03/21 04:17:54;;;;;;;89.23;53.07;;;;;;;4.65;82.73;100259.38;1455407;89;22713;-80
2023/03/21 04:20:21;;;;;;;87.73;51.23;;;;;;;4.68;82.35;100261.77;1450508;89;22170;-80
2023/03/21 04:22:47;;;;;;;85.90;52.10;;;;;;;4.73;82.46;100257.03;1435677;89;21811;-81
2023/03/21 04:25:13;;;;;;;87.07;50.40;;;;;;;4.78;82.58;100254.08;1453917;90;22821;-81
2023/03/21 04:27:40;;;;;;;82.07;50.10;;;;;;;4.77;82.35;100246.66;1451662;89;23095;-80
2023/03/21 04:30:11;;;;;;;83.50;52.40;;;;;;;4.89;82.39;100256.70;1448967;90;21936;-81
2023/03/21 04:32:38;;;;;;;84.60;53.33;;;;;;;4.88;82.99;100249.31;1453123;89;21863;-80
2023/03/21 04:35:09;;;;;;;80.73;51.77;;;;;;;4.93;83.21;100257.68;1454415;89;22698;-80
2023/03/21 04:37:38;;;;;;;86.33;51.80;;;;;;;4.92;82.80;100261.27;1452185;89;21868;-80
2023/03/21 04:40:06;;;;;;;81.27;48.43;;;;;;;4.86;84.50;100273.98;1459539;89;22956;-80
2023/03/21 04:42:34;;;;;;;70.07;46.97;;;;;;;4.81;85.10;100275.66;1446639;89;22104;-81
2023/03/21 04:45:01;;;;;;;74.70;46.27;;;;;;;4.79;84.00;100272.30;1457063;89;21855;-80
2023/03/21 04:47:30;;;;;;;79.90;49.87;;;;;;;4.79;83.40;100265.75;1453084;89;23166;-79
2023/03/21 04:49:56;;;;;;;78.33;46.57;;;;;;;4.85;82.97;100263.97;1454630;90;21976;-79
2023/03/21 04:52:22;;;;;;;71.50;46.57;;;;;;;5.00;82.48;100267.22;1452785;89;21951;-80
2023/03/21 04:54:48;;;;;;;79.60;47.07;;;;;;;5.00;82.48;100267.22;1453671;89;21878;-78
2023/03/21 04:57:14;;;;;;;81.07;50.13;;;;;;;5.04;82.46;100259.98;1452984;89;22356;-80
2023/03/21 04:59:41;;;;;;;81.97;48.60;;;;;;;5.04;82.46;100259.98;1450504;89;22060;-78
2023/03/21 05:02:07;;;;;;;77.30;47.60;;;;;;;5.12;81.85;100256.28;1447436;89;21900;-77
2023/03/21 05:04:33;;;;;;;83.70;51.07;;;;;;;5.19;81.41;100258.81;1456927;89;22033;-78
2023/03/21 05:07:00;;;;;;;83.80;50.10;;;;;;;5.19;81.41;100258.81;1443362;90;22052;-79
2023/03/21 05:09:26;;;;;;;74.33;49.20;;;;;;;5.15;81.96;100248.17;1456277;89;22076;-78
2023/03/21 05:11:53;;;;;;;71.93;46.87;;;;;;;5.19;82.10;100255.70;1450376;89;23124;-78
2023/03/21 05:14:23;;;;;;;78.73;47.43;;;;;;;5.22;81.90;100257.73;1446881;89;22062;-78
2023/03/21 05:16:55;;;;;;;73.30;44.90;;;;;;;5.23;81.90;100254.16;1452051;90;22326;-79
2023/03/21 05:19:33;;;;;;;158.07;82.97;;;;;;;5.30;81.55;100261.45;1446463;89;21711;-78
2023/03/21 05:21:54;;;;;;;139.77;71.73;;;;;;;5.34;81.46;100267.29;1454283;90;22170;-78
2023/03/21 05:24:21;;;;;;;106.17;60.77;;;;;;;5.38;81.16;100272.20;1445609;89;23415;-79
2023/03/21 05:26:49;;;;;;;112.10;62.93;;;;;;;5.38;81.01;100272.20;1461572;89;22186;-77
2023/03/21 05:29:17;;;;;;;110.07;63.37;;;;;;;5.43;81.54;100282.33;1447964;89;22895;-78
2023/03/21 05:31:45;;;;;;;99.07;59.37;;;;;;;5.42;81.04;100281.49;1453754;89;22648;-78
2023/03/21 05:34:12;;;;;;;108.03;62.77;;;;;;;5.39;80.86;100280.91;1455386;89;23505;-77
2023/03/21 05:36:38;;;;;;;96.80;58.40;;;;;;;5.39;80.86;100280.91;1454154;89;22090;-77
2023/03/21 05:39:05;;;;;;;101.53;59.17;;;;;;;5.41;81.01;100281.63;1450947;89;23013;-77
2023/03/21 05:41:31;;;;;;;96.57;56.83;;;;;;;5.45;81.77;100295.34;1455077;90;22119;-77
2023/03/21 05:43:59;;;;;;;90.17;50.53;;;;;;;5.49;81.82;100295.45;1453694;89;22044;-77
2023/03/21 05:46:25;;;;;;;94.93;54.77;;;;;;;5.55;81.43;100292.35;1452383;89;22186;-77
2023/03/21 05:48:51;;;;;;;104.17;57.67;;;;;;;5.62;80.84;100288.31;1454034;89;22205;-77
2023/03/21 05:51:18;;;;;;;94.97;59.70;;;;;;;5.71;80.64;100284.97;1450040;89;23144;-78
2023/03/21 05:53:44;;;;;;;110.10;60.50;;;;;;;5.80;80.51;100282.92;1452307;89;22352;-77
2023/03/21 05:56:11;;;;;;;111.30;64.23;;;;;;;5.88;80.36;100277.91;1455051;89;22067;-77
2023/03/21 05:58:37;;;;;;;109.17;65.30;;;;;;;5.95;80.26;100276.14;1446346;89;22095;-77
2023/03/21 06:01:04;;;;;;;107.23;61.47;;;;;;;6.03;79.97;100288.19;1459014;90;23255;-77
2023/03/21 06:03:30;;;;;;;103.77;65.10;;;;;;;6.11;79.24;100288.42;1452873;89;22008;-77
2023/03/21 06:05:57;;;;;;;100.73;59.13;;;;;;;6.27;78.83;100288.88;1455064;89;21656;-77
2023/03/21 06:08:23;;;;;;;93.00;56.80;;;;;;;6.27;78.83;100287.72;1455885;89;21361;-77
2023/03/21 06:10:49;;;;;;;89.87;55.33;;;;;;;6.47;78.93;100287.72;1456244;89;22382;-76
2023/03/21 06:13:16;;;;;;;87.20;53.20;;;;;;;6.63;78.62;100293.41;1455438;89;21471;-77
2023/03/21 06:15:42;;;;;;;92.13;55.80;;;;;;;6.79;78.06;100291.69;1450455;89;21497;-79
2023/03/21 06:18:08;;;;;;;86.50;55.10;;;;;;;6.91;77.50;100293.30;1451014;90;22381;-76
2023/03/21 06:20:34;;;;;;;102.47;54.47;;;;;;;7.04;77.07;100289.63;1450039;89;23009;-77
2023/03/21 06:23:01;;;;;;;84.83;52.03;;;;;;;7.15;76.67;100289.09;1456590;89;21361;-81
2023/03/21 06:25:27;;;;;;;83.60;55.40;;;;;;;7.24;76.10;100288.80;1454423;89;21390;-80
2023/03/21 06:27:53;;;;;;;97.57;54.77;;;;;;;7.33;76.13;100287.18;1449978;89;22352;-80
2023/03/21 06:30:20;;;;;;;93.30;54.93;;;;;;;7.39;75.67;100284.02;1443553;90;22536;-83
2023/03/21 06:32:46;;;;;;;80.37;52.27;;;;;;;7.47;75.47;100284.20;1452974;89;21368;-82
2023/03/21 06:35:12;;;;;;;89.53;54.63;;;;;;;7.53;75.04;100281.05;1455811;90;21888;-80
2023/03/21 06:37:38;;;;;;;90.03;55.70;;;;;;;7.58;74.51;100284.13;1453014;89;22542;-80
2023/03/21 06:40:06;;;;;;;95.67;58.33;;;;;;;7.66;74.51;100289.58;1447280;89;21406;-82
2023/03/21 06:42:32;;;;;;;101.27;63.17;;;;;;;7.72;74.54;100292.16;1456322;89;21596;-81
2023/03/21 06:44:59;;;;;;;107.33;66.00;;;;;;;7.79;74.39;100288.50;1447231;89;21442;-80
2023/03/21 06:47:25;;;;;;;107.90;60.73;;;;;;;7.85;74.14;100292.78;1449217;89;21390;-80
2023/03/21 06:49:51;;;;;;;98.00;57.87;;;;;;;7.93;74.24;100296.53;1454358;90;22228;-80
2023/03/21 06:52:17;;;;;;;91.07;55.67;;;;;;;8.02;74.27;100303.63;1451357;90;21464;-78
2023/03/21 06:54:44;;;;;;;111.80;64.20;;;;;;;8.13;74.33;100296.94;1445776;89;22381;-81
2023/03/21 06:57:10;;;;;;;96.53;59.47;;;;;;;8.24;73.53;100293.36;1453045;89;21523;-82
2023/03/21 06:59:36;;;;;;;100.60;56.90;;;;;;;8.39;73.60;100292.52;1443753;90;21398;-81
2023/03/21 07:02:03;;;;;;;85.23;56.87;;;;;;;8.53;73.32;100296.90;1448522;89;21451;-80
2023/03/21 07:04:30;;;;;;;91.97;57.47;;;;;;;8.69;73.01;100296.83;1448121;89;21578;-82
2023/03/21 07:06:57;;;;;;;89.03;55.27;;;;;;;8.85;72.65;100295.80;1449725;89;21536;-81
2023/03/21 07:09:26;;;;;;;85.97;51.10;;;;;;;9.03;72.32;100295.91;1454200;90;22426;-81
2023/03/21 07:11:52;;;;;;;95.47;53.97;;;;;;;9.18;71.69;100293.70;1453635;90;21582;-81
2023/03/21 07:14:19;;;;;;;89.90;52.23;;;;;;;9.31;70.69;100293.38;1452826;89;21382;-82
2023/03/21 07:16:45;;;;;;;105.93;55.27;;;;;;;9.47;70.75;100294.94;1453143;89;21548;-82
2023/03/21 07:23:10;;;;;;;90.63;51.63;;;;;;;9.76;69.57;100292.19;1535390;90;21398;-81
2023/03/21 07:25:38;;;;;;;82.03;50.77;;;;;;;9.96;69.21;100299.55;1373545;90;21272;-80
2023/03/21 07:28:07;;;;;;;77.50;44.13;;;;;;;10.05;67.64;100305.27;1378087;89;21191;-82
2023/03/21 07:30:35;;;;;;;61.37;37.93;;;;;;;10.09;66.36;100301.83;1375586;89;21265;-81
2023/03/21 07:33:02;;;;;;;59.10;37.97;;;;;;;10.19;66.81;100294.69;1383914;89;21295;-82
2023/03/21 07:35:28;;;;;;;57.77;36.23;;;;;;;10.33;67.06;100291.58;1378827;90;21263;-81
2023/03/21 07:37:55;;;;;;;53.90;31.40;;;;;;;10.46;65.98;100295.66;1379619;89;21243;-81
2023/03/21 07:40:21;;;;;;;50.63;29.77;;;;;;;10.46;63.13;100300.45;1511666;90;21575;-82
2023/03/21 07:42:49;;;;;;;48.63;29.57;;;;;;;10.42;61.83;100302.25;1522960;90;21442;-83
2023/03/21 07:45:19;;;;;;;46.13;29.07;;;;;;;10.39;61.25;100295.44;1377162;90;22146;-81
2023/03/21 07:47:44;;;;;;;46.53;29.73;;;;;;;10.49;63.14;100300.65;1528488;90;21382;-82
2023/03/21 07:50:10;;;;;;;43.57;27.90;;;;;;;10.62;63.62;100295.83;1379536;89;22139;-83
2023/03/21 07:52:37;;;;;;;45.00;29.07;;;;;;;10.75;62.38;100293.62;1379620;89;22198;-82
2023/03/21 07:55:04;;;;;;;47.20;28.33;;;;;;;10.81;61.36;100297.47;1517208;89;21310;-82
2023/03/21 07:57:31;;;;;;;46.10;27.93;;;;;;;10.92;61.80;100297.23;1535380;89;21199;-81
2023/03/21 07:59:57;;;;;;;42.10;27.13;;;;;;;10.95;61.72;100301.41;1379288;89;22109;-82
2023/03/21 08:02:23;;;;;;;42.73;27.30;;;;;;;11.05;62.21;100302.16;1379594;89;21472;-81
2023/03/21 08:04:49;;;;;;;41.37;25.83;;;;;;;11.19;62.13;100312.66;1379345;90;21251;-79
2023/03/21 08:07:16;;;;;;;37.60;22.90;;;;;;;11.26;60.62;100305.28;1378945;89;22218;-81
2023/03/21 08:09:43;;;;;;;34.03;22.97;;;;;;;11.23;59.27;100304.27;1379640;90;21251;-82
2023/03/21 08:12:10;;;;;;;37.43;23.13;;;;;;;11.38;60.69;100306.36;1379030;89;21230;-82
2023/03/21 08:14:36;;;;;;;40.53;25.90;;;;;;;11.43;59.79;100309.38;1378814;89;21303;-81
2023/03/21 08:17:04;;;;;;;42.07;27.10;;;;;;;11.57;60.70;100311.45;1530901;90;22218;-81
2023/03/21 08:19:30;;;;;;;43.73;28.47;;;;;;;11.71;59.89;100305.56;1384135;89;21515;-83
2023/03/21 08:21:58;;;;;;;43.47;27.13;;;;;;;11.81;59.89;100311.23;1372766;90;21478;-83
2023/03/21 08:24:25;;;;;;;39.73;25.43;;;;;;;11.89;59.98;100317.45;1377540;90;21532;-83
2023/03/21 08:26:52;;;;;;;36.73;23.97;;;;;;;12.04;60.16;100314.19;1413919;89;21273;-83
2023/03/21 08:29:18;;;;;;;35.30;23.23;;;;;;;12.19;60.49;100316.05;1379256;89;22283;-83
2023/03/21 08:31:44;;;;;;;35.40;22.10;;;;;;;12.39;60.57;100303.84;1379796;89;21272;-84
2023/03/21 08:34:12;;;;;;;36.33;22.70;;;;;;;12.57;60.61;100297.93;1377452;90;21324;-82
2023/03/21 08:36:39;;;;;;;31.23;20.27;;;;;;;12.78;60.58;100293.97;1535411;89;21406;-82
2023/03/21 08:39:05;;;;;;;34.57;20.63;;;;;;;12.98;60.24;100290.48;1379237;89;21317;-82
2023/03/21 08:41:33;;;;;;;29.77;20.50;;;;;;;13.16;59.66;100297.77;1379519;89;21391;-83
2023/03/21 08:44:00;;;;;;;31.93;21.23;;;;;;;13.28;58.35;100296.95;1377857;90;21250;-84
2023/03/21 08:46:26;;;;;;;27.83;18.13;;;;;;;13.47;58.64;100301.09;1379063;90;21324;-83
2023/03/21 08:48:53;;;;;;;26.73;17.23;;;;;;;13.67;58.41;100309.52;1379021;89;21376;-84
2023/03/21 08:51:20;;;;;;;34.37;18.40;;;;;;;13.87;58.09;100305.97;1384140;89;21339;-83
2023/03/21 08:53:52;;;;;;;26.40;17.33;;;;;;;14.04;57.71;100305.37;1384903;89;21479;-84
2023/03/21 08:56:18;;;;;;;25.50;15.10;;;;;;;14.15;56.86;100304.99;1379698;90;21421;-84
2023/03/21 08:58:44;;;;;;;21.30;16.13;;;;;;;14.26;56.82;100301.95;1385054;89;21279;-83
2023/03/21 09:01:14;;;;;;;25.73;15.27;;;;;;;14.39;56.88;100295.56;1403178;90;21655;-84
2023/03/21 09:03:39;;;;;;;21.70;14.53;;;;;;;14.51;56.45;100295.16;1456051;89;21397;-84
2023/03/21 09:06:09;;;;;;;20.53;13.80;;;;;;;14.62;55.84;100300.12;1453299;90;21353;-83
2023/03/21 09:08:33;;;;;;;21.83;14.27;;;;;;;14.72;56.40;100296.70;1451818;89;21523;-83
2023/03/21 09:10:59;;;;;;;16.67;13.57;;;;;;;14.79;56.05;100298.99;1451003;90;21330;-84
2023/03/21 09:13:25;;;;;;;16.77;14.00;;;;;;;14.82;55.33;100295.97;1445379;90;21456;-81
2023/03/21 09:15:52;;;;;;;21.70;13.33;;;;;;;14.86;55.02;100293.77;1454460;90;21574;-82
2023/03/21 09:18:21;;;;;;;19.07;13.00;;;;;;;14.89;55.02;100281.42;1454439;89;22256;-81
2023/03/21 09:20:49;;;;;;;19.33;13.50;;;;;;;14.95;53.84;100287.36;1452896;89;21463;-82
2023/03/21 09:23:15;;;;;;;20.07;13.30;;;;;;;14.93;54.48;100285.88;1449923;89;21541;-83
2023/03/21 09:25:46;;;;;;;24.47;14.13;;;;;;;14.93;54.55;100284.55;1455380;89;21783;-83
2023/03/21 09:28:13;;;;;;;21.50;13.23;;;;;;;14.95;54.39;100287.87;1450033;90;21545;-82
2023/03/21 09:30:40;;;;;;;18.37;12.63;;;;;;;15.03;54.42;100291.80;1453791;89;21426;-84
2023/03/21 09:33:07;;;;;;;23.00;14.43;;;;;;;14.94;53.72;100284.89;1454734;89;21480;-81
2023/03/21 09:35:33;;;;;;;31.80;13.90;;;;;;;14.97;53.54;100281.86;1452262;89;21382;-80
2023/03/21 09:38:00;;;;;;;21.73;14.87;;;;;;;14.95;53.89;100279.37;1452650;90;22870;-83
2023/03/21 09:40:39;;;;;;;18.67;13.53;;;;;;;14.96;54.35;100277.05;1452678;89;21347;-83
2023/03/21 09:43:48;;;;;;;17.63;13.03;;;;;;;14.97;54.20;100279.20;1452706;89;21501;-84
2023/03/21 09:51:09;;;;;;;21.03;12.40;;;;;;;14.84;53.76;100275.80;1402985;92;21563;-85
2023/03/21 09:53:39;;;;;;;21.97;14.07;;;;;;;14.87;53.84;100274.10;1413553;92;22442;-84
2023/03/21 09:56:11;;;;;;;20.97;13.13;;;;;;;14.84;53.61;100277.95;1414076;92;21370;-81
2023/03/21 09:58:42;;;;;;;21.83;14.60;;;;;;;14.81;53.47;100270.31;1395449;92;22451;-82
2023/03/21 10:01:27;;;;;;;21.43;13.90;;;;;;;14.75;53.37;100267.55;1414605;92;22331;-81
2023/03/21 10:03:55;;;;;;;26.00;13.97;;;;;;;14.70;53.34;100268.07;1410095;92;21518;-81
2023/03/21 10:06:28;;;;;;;17.80;12.13;;;;;;;14.69;53.48;100273.08;1409539;92;21481;-81
2023/03/21 10:08:52;;;;;;;18.40;12.07;;;;;;;14.63;53.14;100279.12;1409838;92;21563;-82
2023/03/21 10:11:32;;;;;;;18.33;12.13;;;;;;;14.58;53.15;100267.66;1408961;92;21497;-80
2023/03/21 10:14:08;;;;;;;;;;;;;;;14.64;53.41;100279.44;1414702;92;21437;-83
2023/03/21 10:16:40;;;;;;;16.30;11.67;;;;;;;14.68;53.17;100276.77;1407027;92;20304;-79
2023/03/21 10:19:15;;;;;;;25.03;14.27;;;;;;;14.98;53.38;100279.52;1412223;92;21831;-81
2023/03/21 10:21:46;;;;;;;17.47;12.73;;;;;;;15.32;53.37;100277.70;1409852;92;22476;-83
2023/03/21 10:24:18;;;;;;;19.47;12.50;;;;;;;15.69;52.46;100271.49;1415726;90;21603;-82
2023/03/21 10:26:45;;;;;;;20.10;14.50;;;;;;;16.06;52.08;100275.05;1451389;89;21397;-82
2023/03/21 10:29:15;;;;;;;18.17;14.03;;;;;;;16.07;49.70;100268.69;1452742;89;21597;-81
2023/03/21 10:31:44;;;;;;;15.20;11.63;;;;;;;16.38;50.89;100263.59;1535211;89;21317;-82
2023/03/21 10:34:32;;;;;;;18.37;13.43;;;;;;;16.66;50.10;100267.17;1519651;90;21308;-82
2023/03/21 10:37:00;;;;;;;18.17;12.90;;;;;;;17.07;50.33;100259.02;1534899;90;21594;-81
2023/03/21 10:39:40;;;;;;;15.93;11.73;;;;;;;17.42;49.91;100258.53;1371121;90;21272;-82
2023/03/21 10:46:45;;;;;;;16.97;10.27;;;;;;;17.44;47.93;100263.18;1466351;92;22361;-81
2023/03/21 10:49:14;;;;;;;16.80;10.30;;;;;;;17.51;48.41;100264.55;1396350;92;22228;-79
2023/03/21 10:51:41;;;;;;;16.40;10.58;;;;;;;17.51;47.57;100260.02;1498045;92;21318;-79
2023/03/21 10:54:17;;;;;;;20.67;10.93;;;;;;;17.60;48.20;100262.84;1353989;92;21267;-80
2023/03/21 10:57:06;;;;;;;12.83;9.43;;;;;;;17.74;47.85;100258.39;1497807;92;21332;-80
2023/03/21 10:59:40;;;;;;;18.90;11.20;;;;;;;17.98;47.50;100257.11;1498208;92;21362;-80
2023/03/21 11:02:17;;;;;;;12.50;10.23;;;;;;;18.01;46.03;100259.38;1423678;92;21325;-81
2023/03/21 11:04:45;;;;;;;17.03;10.93;;;;;;;17.81;45.90;100250.45;1418884;92;22525;-80
2023/03/21 11:07:14;;;;;;;14.70;10.40;;;;;;;17.97;46.22;100248.74;1497952;92;21237;-80
2023/03/21 11:09:51;;;;;;;17.30;11.23;;;;;;;18.12;44.51;100246.42;1467035;92;21393;-81
2023/03/21 11:12:38;;;;;;;17.93;11.03;;;;;;;18.37;45.47;100240.83;1350940;92;21546;-79
2023/03/21 11:15:42;;;;;;;14.93;10.53;;;;;;;18.66;45.62;100234.78;1444052;92;21355;-81
2023/03/21 11:18:24;;;;;;;17.42;10.93;;;;;;;18.91;44.83;100229.16;1348575;93;22281;-80
2023/03/21 11:20:57;;;;;;;15.50;10.35;;;;;;;18.99;43.43;100229.47;1486021;91;21532;-80
2023/03/21 11:23:30;;;;;;;14.70;10.88;;;;;;;19.07;41.43;100225.73;1535415;88;21983;-81
2023/03/21 11:25:59;;;;;;;14.95;9.60;;;;;;;19.32;42.67;100229.41;1374344;90;21451;-78
2023/03/21 11:28:36;;;;;;;14.83;10.53;;;;;;;19.58;41.62;100230.37;1353726;91;21276;-78
2023/03/21 11:31:05;;;;;;;15.18;10.43;;;;;;;19.78;40.22;100220.42;1535587;88;21310;-79
2023/03/21 11:33:45;;;;;;;16.07;9.73;;;;;;;19.98;40.17;100218.17;1376846;90;21258;-82
2023/03/21 11:36:23;;;;;;;18.82;9.15;;;;;;;20.10;40.04;100211.07;1486471;91;22194;-82
2023/03/21 11:38:53;;;;;;;14.53;9.55;;;;;;;20.30;39.60;100209.61;1375688;90;21257;-81
2023/03/21 11:41:25;;;;;;;14.60;9.55;;;;;;;20.39;37.39;100207.48;1389269;91;21392;-81
2023/03/21 11:43:52;;;;;;;12.65;8.73;;;;;;;20.41;37.92;100205.41;1448845;89;21700;-80